createdAt,value
2018-07-02T00:01:14.790Z,11.20
2018-07-02T00:03:46.209Z,11.20
2018-07-02T00:06:41.797Z,11.20
2018-07-02T00:11:43.636Z,11.10
2018-07-02T00:14:15.017Z,11.20
2018-07-02T00:16:47.350Z,11.10
2018-07-02T00:19:18.851Z,11.10
2018-07-02T00:21:52.084Z,11.10
2018-07-02T00:24:24.391Z,11.10
2018-07-02T00:26:55.912Z,11.10
2018-07-02T00:29:27.329Z,11.10
2018-07-02T00:32:00.262Z,11.10
2018-07-02T00:37:03.966Z,11.00
2018-07-02T00:39:35.527Z,11.00
2018-07-02T00:42:07.048Z,11.00
2018-07-02T00:44:39.583Z,11.00
2018-07-02T00:47:11.826Z,11.00
2018-07-02T00:49:43.927Z,11.00
2018-07-02T00:52:15.447Z,11.00
2018-07-02T00:57:18.114Z,10.90
2018-07-02T00:59:49.683Z,10.90
2018-07-02T01:02:20.877Z,10.90
2018-07-02T01:04:52.459Z,10.90
2018-07-02T01:07:24.439Z,10.90
2018-07-02T01:12:27.467Z,10.80
2018-07-02T01:14:58.916Z,10.80
2018-07-02T01:17:31.184Z,10.70
2018-07-02T01:20:02.463Z,10.70
2018-07-02T01:25:05.103Z,10.50
2018-07-02T01:27:36.290Z,10.50
2018-07-02T01:30:07.787Z,10.40
2018-07-02T01:37:40.052Z,10.30
2018-07-02T01:40:12.348Z,10.30
2018-07-02T01:42:43.829Z,10.30
2018-07-02T01:45:15.216Z,10.20
2018-07-02T01:47:46.608Z,10.20
2018-07-02T01:52:49.885Z,10.20
2018-07-02T01:55:22.015Z,10.10
2018-07-02T01:57:55.947Z,10.10
2018-07-02T02:00:27.418Z,10.10
2018-07-02T02:02:58.830Z,10.10
2018-07-02T02:05:30.120Z,10.10
2018-07-02T02:08:02.292Z,10.10
2018-07-02T02:10:33.741Z,10.10
2018-07-02T02:13:06.130Z,10.10
2018-07-02T02:15:37.698Z,10.10
2018-07-02T02:20:39.532Z,10.10
2018-07-02T02:23:11.504Z,10.10
2018-07-02T02:25:43.450Z,10.10
2018-07-02T02:30:45.408Z,10.10
2018-07-02T02:33:16.676Z,10.10
2018-07-02T02:38:18.555Z,10.10
2018-07-02T02:40:49.897Z,10.10
2018-07-02T02:43:22.103Z,10.10
2018-07-02T02:45:53.656Z,10.10
2018-07-02T02:48:25.416Z,10.10
2018-07-02T02:50:56.706Z,10.10
2018-07-02T02:53:28.244Z,10.10
2018-07-02T02:56:00.626Z,10.20
2018-07-02T02:58:33.409Z,10.20
2018-07-02T03:01:05.028Z,10.20
2018-07-02T03:03:36.620Z,10.20
2018-07-02T03:06:07.973Z,10.20
2018-07-02T03:08:40.491Z,10.20
2018-07-02T03:11:12.626Z,10.20
2018-07-02T03:13:45.421Z,10.30
2018-07-02T03:16:17.058Z,10.30
2018-07-02T03:18:48.240Z,10.30
2018-07-02T03:21:19.698Z,10.40
2018-07-02T03:23:51.030Z,10.40
2018-07-02T03:26:22.347Z,10.50
2018-07-02T03:28:53.734Z,10.50
2018-07-02T03:31:25.235Z,10.60
2018-07-02T03:33:56.496Z,10.60
2018-07-02T03:36:27.835Z,10.70
2018-07-02T03:38:59.124Z,10.70
2018-07-02T03:41:30.553Z,10.80
2018-07-02T03:44:02.271Z,10.80
2018-07-02T03:46:33.693Z,10.90
2018-07-02T03:49:05.858Z,10.90
2018-07-02T03:51:37.437Z,11.00
2018-07-02T03:54:08.743Z,11.00
2018-07-02T03:56:42.616Z,11.00
2018-07-02T03:59:14.201Z,11.10
2018-07-02T04:01:45.823Z,11.10
2018-07-02T04:04:17.779Z,11.20
2018-07-02T04:06:49.209Z,11.20
2018-07-02T04:09:20.557Z,11.20
2018-07-02T04:11:52.201Z,11.30
2018-07-02T04:14:23.291Z,11.30
2018-07-02T04:16:54.285Z,11.40
2018-07-02T04:19:26.119Z,11.40
2018-07-02T04:21:57.485Z,11.50
2018-07-02T04:24:28.580Z,11.50
2018-07-02T04:26:59.619Z,11.50
2018-07-02T04:32:01.035Z,11.70
2018-07-02T04:34:31.953Z,11.70
2018-07-02T04:37:02.973Z,11.80
2018-07-02T04:39:34.894Z,11.80
2018-07-02T04:42:06.008Z,11.90
2018-07-02T04:44:38.137Z,11.90
2018-07-02T04:47:09.161Z,12.00
2018-07-02T04:49:41.531Z,12.00
2018-07-02T04:52:12.761Z,12.10
2018-07-02T04:54:45.938Z,12.20
2018-07-02T04:57:17.131Z,12.20
2018-07-02T04:59:48.294Z,12.30
2018-07-02T05:02:19.209Z,12.30
2018-07-02T05:04:50.537Z,12.40
2018-07-02T05:07:21.953Z,12.50
2018-07-02T05:09:52.706Z,12.50
2018-07-02T05:12:23.369Z,12.60
2018-07-02T05:14:54.138Z,12.70
2018-07-02T05:17:24.789Z,12.80
2018-07-02T05:19:55.465Z,12.90
2018-07-02T05:22:26.708Z,13.00
2018-07-02T05:24:57.888Z,13.10
2018-07-02T05:27:29.647Z,13.10
2018-07-02T05:30:00.751Z,13.20
2018-07-02T05:32:31.951Z,13.20
2018-07-02T05:35:03.676Z,13.30
2018-07-02T05:37:35.387Z,13.40
2018-07-02T05:40:07.595Z,13.50
2018-07-02T05:42:38.771Z,13.60
2018-07-02T05:45:10.760Z,13.60
2018-07-02T05:47:42.001Z,13.70
2018-07-02T05:52:44.002Z,13.90
2018-07-02T05:55:15.334Z,14.00
2018-07-02T05:57:46.597Z,14.10
2018-07-02T06:00:18.268Z,14.20
2018-07-02T06:05:20.849Z,14.40
2018-07-02T06:07:52.880Z,14.50
2018-07-02T06:12:55.688Z,14.70
2018-07-02T06:15:26.639Z,14.80
2018-07-02T06:17:58.108Z,14.90
2018-07-02T06:22:59.879Z,15.10
2018-07-02T06:25:31.256Z,15.20
2018-07-02T06:28:02.591Z,15.30
2018-07-02T06:30:35.052Z,15.40
2018-07-02T06:33:06.861Z,15.50
2018-07-02T06:35:38.496Z,15.60
2018-07-02T06:40:40.039Z,15.80
2018-07-02T06:43:11.649Z,15.90
2018-07-02T06:45:44.003Z,16.00
2018-07-02T06:48:15.482Z,16.10
2018-07-02T06:50:46.794Z,16.10
2018-07-02T06:53:18.338Z,16.20
2018-07-02T06:55:49.633Z,16.20
2018-07-02T06:58:20.723Z,16.40
2018-07-02T07:00:51.883Z,16.50
2018-07-02T07:03:26.900Z,16.60
2018-07-02T07:05:58.187Z,16.70
2018-07-02T07:08:29.475Z,16.80
2018-07-02T07:11:00.647Z,16.90
2018-07-02T07:13:31.996Z,17.10
2018-07-02T07:16:03.345Z,17.20
2018-07-02T07:18:34.551Z,17.30
2018-07-02T07:21:05.904Z,17.40
2018-07-02T07:23:37.121Z,17.50
2018-07-02T07:26:09.336Z,17.60
2018-07-02T07:28:41.591Z,17.80
2018-07-02T07:31:12.902Z,17.90
2018-07-02T07:33:44.086Z,18.00
2018-07-02T07:36:17.203Z,18.10
2018-07-02T07:38:48.509Z,18.20
2018-07-02T07:43:50.118Z,18.40
2018-07-02T07:46:21.063Z,18.60
2018-07-02T07:48:52.337Z,18.60
2018-07-02T07:51:24.609Z,18.70
2018-07-02T07:53:57.225Z,18.80
2018-07-02T07:56:29.040Z,18.90
2018-07-02T07:59:00.407Z,18.90
2018-07-02T08:01:31.866Z,19.00
2018-07-02T08:04:04.214Z,19.10
2018-07-02T08:06:35.692Z,19.20
2018-07-02T08:09:11.328Z,19.30
2018-07-02T08:11:43.223Z,19.40
2018-07-02T08:14:14.440Z,19.60
2018-07-02T08:16:46.215Z,19.70
2018-07-02T08:19:17.603Z,19.80
2018-07-02T08:21:50.307Z,19.90
2018-07-02T08:24:21.513Z,20.10
2018-07-02T08:26:54.122Z,20.20
2018-07-02T08:31:55.773Z,20.30
2018-07-02T08:34:26.966Z,20.40
2018-07-02T08:36:59.122Z,20.50
2018-07-02T08:39:30.395Z,20.70
2018-07-02T08:42:01.590Z,20.80
2018-07-02T08:44:33.127Z,21.00
2018-07-02T08:47:04.996Z,21.10
2018-07-02T08:49:36.324Z,21.20
2018-07-02T08:52:07.645Z,21.30
2018-07-02T08:54:39.825Z,21.40
2018-07-02T08:57:10.760Z,21.50
2018-07-02T08:59:41.963Z,21.50
2018-07-02T09:04:43.745Z,21.70
2018-07-02T09:09:46.261Z,21.80
2018-07-02T09:12:17.629Z,21.80
2018-07-02T09:14:48.894Z,21.80
2018-07-02T09:17:20.766Z,21.90
2018-07-02T09:19:53.039Z,22.00
2018-07-02T09:22:25.076Z,22.10
2018-07-02T09:24:56.337Z,22.10
2018-07-02T09:27:28.450Z,22.20
2018-07-02T09:30:00.136Z,22.30
2018-07-02T09:32:31.534Z,22.50
2018-07-02T09:35:02.481Z,22.60
2018-07-02T09:37:34.321Z,22.60
2018-07-02T09:40:06.049Z,22.70
2018-07-02T09:42:36.725Z,22.70
2018-07-02T09:45:08.249Z,22.70
2018-07-02T09:47:39.186Z,22.80
2018-07-02T09:50:10.530Z,22.90
2018-07-02T09:55:12.577Z,23.10
2018-07-02T09:57:45.701Z,23.20
2018-07-02T10:00:17.599Z,23.30
2018-07-02T10:02:48.776Z,23.50
2018-07-02T10:07:49.969Z,23.80
2018-07-02T10:10:21.022Z,24.00
2018-07-02T10:12:52.105Z,24.10
2018-07-02T10:15:23.242Z,24.20
2018-07-02T10:17:54.339Z,24.30
2018-07-02T10:20:25.336Z,24.40
2018-07-02T10:22:56.969Z,24.50
2018-07-02T10:27:59.638Z,24.60
2018-07-02T10:30:30.335Z,24.60
2018-07-02T10:33:03.306Z,24.40
2018-07-02T10:35:35.027Z,24.40
2018-07-02T10:38:07.067Z,24.40
2018-07-02T10:40:37.765Z,24.50
2018-07-02T10:43:08.469Z,24.60
2018-07-02T10:45:39.135Z,24.70
2018-07-02T10:48:10.149Z,24.80
2018-07-02T10:50:42.537Z,24.90
2018-07-02T10:53:13.213Z,24.90
2018-07-02T10:55:44.442Z,24.80
2018-07-02T10:58:15.655Z,24.80
2018-07-02T11:00:48.081Z,24.70
2018-07-02T11:03:19.483Z,24.70
2018-07-02T11:05:50.926Z,24.70
2018-07-02T11:08:21.545Z,24.60
2018-07-02T11:10:52.205Z,24.60
2018-07-02T11:15:52.998Z,24.70
2018-07-02T11:18:23.642Z,24.70
2018-07-02T11:23:24.140Z,24.70
2018-07-02T11:25:54.875Z,24.70
2018-07-02T11:28:25.557Z,24.90
2018-07-02T11:30:56.196Z,25.00
2018-07-02T11:33:26.885Z,25.00
2018-07-02T11:35:57.530Z,25.20
2018-07-02T11:38:28.277Z,25.30
2018-07-02T11:40:59.179Z,25.30
2018-07-02T11:43:31.612Z,25.40
2018-07-02T11:46:02.993Z,25.50
2018-07-02T11:48:34.040Z,25.50
2018-07-02T11:51:05.231Z,25.60
2018-07-02T11:53:37.441Z,25.60
2018-07-02T11:58:38.694Z,25.70
2018-07-02T12:01:09.701Z,25.80
2018-07-02T12:03:40.655Z,26.00
2018-07-02T12:06:12.769Z,26.10
2018-07-02T12:13:43.988Z,26.30
2018-07-02T12:16:15.765Z,26.40
2018-07-02T12:18:46.914Z,26.60
2018-07-02T12:21:18.090Z,26.60
2018-07-02T12:23:49.193Z,26.70
2018-07-02T12:26:20.293Z,26.80
2018-07-02T12:28:50.964Z,26.80
2018-07-02T12:31:24.702Z,26.70
2018-07-02T12:33:55.714Z,26.70
2018-07-02T12:36:27.515Z,26.80
2018-07-02T12:38:59.230Z,26.90
